createdAt,value
2022-09-04T00:02:05.920Z,88.42
2022-09-04T00:04:47.517Z,88.58
2022-09-04T00:08:09.041Z,88.76
2022-09-04T00:10:59.938Z,88.78
2022-09-04T00:13:46.379Z,88.82
2022-09-04T00:16:28.232Z,88.71
2022-09-04T00:19:07.212Z,88.98
2022-09-04T00:22:04.006Z,89.01
2022-09-04T00:24:56.561Z,89.34
2022-09-04T00:27:24.190Z,89.48
2022-09-04T00:30:07.927Z,89.70
2022-09-04T00:33:08.496Z,89.72
2022-09-04T00:35:41.190Z,89.73
2022-09-04T00:38:30.645Z,89.42
2022-09-04T00:41:04.483Z,89.22
2022-09-04T00:43:55.432Z,88.96
2022-09-04T00:46:47.855Z,88.92
2022-09-04T00:49:47.515Z,88.95
2022-09-04T00:52:38.797Z,89.10
2022-09-04T00:55:16.097Z,89.16
2022-09-04T00:57:49.140Z,89.33
2022-09-04T01:00:20.172Z,89.36
2022-09-04T01:03:04.092Z,89.42
2022-09-04T01:05:40.585Z,89.17
2022-09-04T01:08:20.450Z,89.69
2022-09-04T01:11:08.568Z,89.81
2022-09-04T01:14:29.664Z,90.09
2022-09-04T01:17:29.353Z,90.09
2022-09-04T01:19:58.955Z,89.66
2022-09-04T01:22:47.265Z,89.61
2022-09-04T01:25:30.109Z,89.49
2022-09-04T01:28:14.747Z,89.54
2022-09-04T01:30:47.395Z,89.56
2022-09-04T01:33:44.956Z,89.48
2022-09-04T01:36:20.013Z,89.32
2022-09-04T01:38:53.714Z,89.48
2022-09-04T01:41:31.016Z,89.23
2022-09-04T01:44:00.328Z,89.23
2022-09-04T01:46:42.062Z,89.39
2022-09-04T01:49:30.626Z,89.46
2022-09-04T01:52:02.795Z,89.36
2022-09-04T01:54:48.214Z,89.74
2022-09-04T01:57:32.247Z,89.61
2022-09-04T02:00:14.322Z,89.78
2022-09-04T02:02:41.417Z,89.60
2022-09-04T02:05:13.766Z,89.43
2022-09-04T02:07:48.048Z,89.69
2022-09-04T02:10:34.470Z,89.54
2022-09-04T02:13:35.996Z,89.19
2022-09-04T02:16:24.944Z,89.17
2022-09-04T02:19:37.141Z,89.52
2022-09-04T02:22:07.209Z,89.64
2022-09-04T02:24:40.479Z,89.84
2022-09-04T02:27:38.897Z,89.91
2022-09-04T02:30:11.891Z,89.71
2022-09-04T02:33:06.195Z,89.68
2022-09-04T02:35:46.948Z,89.61
2022-09-04T02:38:30.837Z,90.07
2022-09-04T02:40:58.293Z,89.95
2022-09-04T02:44:00.416Z,89.70
2022-09-04T02:46:27.100Z,89.56
2022-09-04T02:49:08.635Z,89.51
2022-09-04T02:51:45.801Z,89.34
2022-09-04T02:54:50.849Z,89.48
2022-09-04T02:58:08.079Z,89.64
2022-09-04T03:00:54.421Z,89.75
2022-09-04T03:03:30.015Z,90.24
2022-09-04T03:06:05.135Z,90.15
2022-09-04T03:08:36.333Z,89.98
2022-09-04T03:11:08.992Z,89.74
2022-09-04T03:13:57.746Z,89.86
2022-09-04T03:16:48.395Z,90.21
2022-09-04T03:19:20.183Z,90.23
2022-09-04T03:21:55.621Z,90.36
2022-09-04T03:24:56.263Z,90.28
2022-09-04T03:27:23.291Z,90.42
2022-09-04T03:30:08.364Z,90.06
2022-09-04T03:32:56.679Z,90.09
2022-09-04T03:35:33.868Z,89.92
2022-09-04T03:38:24.156Z,90.06
2022-09-04T03:41:00.616Z,90.07
2022-09-04T03:43:51.220Z,90.11
2022-09-04T03:46:41.055Z,90.05
2022-09-04T03:49:15.216Z,90.06
2022-09-04T03:52:09.931Z,90.11
2022-09-04T03:54:58.352Z,90.15
2022-09-04T03:57:30.714Z,90.15
2022-09-04T04:00:03.669Z,89.79
2022-09-04T04:02:54.414Z,89.78
2022-09-04T04:05:39.137Z,89.73
2022-09-04T04:08:23.796Z,89.63
2022-09-04T04:11:13.127Z,90.00
2022-09-04T04:14:04.535Z,89.95
2022-09-04T04:16:56.202Z,89.60
2022-09-04T04:19:44.401Z,89.81
2022-09-04T04:22:41.466Z,90.24
2022-09-04T04:25:25.583Z,90.38
2022-09-04T04:28:20.111Z,90.54
2022-09-04T04:30:54.668Z,90.34
2022-09-04T04:33:48.670Z,90.45
2022-09-04T04:36:34.650Z,90.59
2022-09-04T04:39:09.985Z,90.74
2022-09-04T04:42:06.585Z,90.98
2022-09-04T04:45:10.862Z,91.17
2022-09-04T04:47:57.144Z,91.12
2022-09-04T04:51:05.398Z,91.37
2022-09-04T04:53:57.424Z,91.37
2022-09-04T04:57:03.878Z,91.08
2022-09-04T04:59:34.744Z,91.15
2022-09-04T05:02:14.022Z,91.23
2022-09-04T05:05:07.179Z,91.11
2022-09-04T05:08:06.324Z,91.33
2022-09-04T05:10:51.389Z,91.42
2022-09-04T05:13:36.419Z,91.55
2022-09-04T05:16:19.076Z,91.41
2022-09-04T05:19:02.671Z,91.58
2022-09-04T05:21:37.278Z,91.58
2022-09-04T05:24:11.253Z,91.64
2022-09-04T05:26:53.240Z,91.73
2022-09-04T05:29:29.307Z,91.68
2022-09-04T05:32:05.027Z,91.74
2022-09-04T05:35:04.119Z,91.74
2022-09-04T05:37:44.256Z,91.71
2022-09-04T05:40:24.840Z,91.76
2022-09-04T05:43:02.922Z,91.73
2022-09-04T05:45:44.763Z,91.49
2022-09-04T05:48:20.637Z,91.44
2022-09-04T05:51:05.298Z,91.31
2022-09-04T05:53:50.844Z,91.53
2022-09-04T05:56:33.272Z,91.67
2022-09-04T05:59:09.110Z,91.66
2022-09-04T06:01:58.772Z,91.79
2022-09-04T06:04:46.647Z,91.93
2022-09-04T06:07:27.638Z,91.77
2022-09-04T06:10:03.750Z,91.92
2022-09-04T06:12:52.371Z,91.90
2022-09-04T06:15:40.547Z,91.97
2022-09-04T06:18:17.307Z,92.02
2022-09-04T06:20:59.770Z,91.79
2022-09-04T06:23:57.675Z,91.82
2022-09-04T06:26:57.895Z,91.24
2022-09-04T06:29:37.716Z,90.96
2022-09-04T06:32:14.499Z,90.81
2022-09-04T06:34:49.050Z,90.37
2022-09-04T06:37:33.619Z,90.43
2022-09-04T06:40:15.311Z,90.16
2022-09-04T06:42:56.305Z,90.08
2022-09-04T06:45:23.020Z,90.12
2022-09-04T06:48:08.492Z,90.01
2022-09-04T06:50:49.136Z,89.74
2022-09-04T06:54:04.248Z,89.73
2022-09-04T06:57:11.040Z,89.50
2022-09-04T06:59:59.552Z,89.31
2022-09-04T07:02:29.028Z,89.11
2022-09-04T07:05:14.397Z,88.75
2022-09-04T07:08:03.217Z,88.01
2022-09-04T07:10:43.665Z,87.76
2022-09-04T07:13:23.688Z,87.99
2022-09-04T07:16:14.885Z,87.45
2022-09-04T07:18:59.604Z,86.97
2022-09-04T07:21:42.356Z,86.13
2022-09-04T07:24:50.464Z,85.74
2022-09-04T07:27:42.835Z,85.82
2022-09-04T07:30:15.199Z,86.09
2022-09-04T07:32:53.930Z,85.20
2022-09-04T07:35:51.175Z,84.65
2022-09-04T07:38:29.372Z,84.34
2022-09-04T07:41:20.074Z,85.06
2022-09-04T07:43:55.102Z,84.43
2022-09-04T07:46:47.211Z,84.39
2022-09-04T07:49:32.358Z,83.68
2022-09-04T07:52:07.668Z,83.33
2022-09-04T07:55:13.433Z,82.22
2022-09-04T07:57:42.814Z,82.28
2022-09-04T08:00:15.468Z,81.20
2022-09-04T08:03:17.053Z,79.65
2022-09-04T08:06:19.638Z,78.74
2022-09-04T08:09:28.888Z,78.08
2022-09-04T08:12:09.261Z,76.76
2022-09-04T08:14:52.472Z,77.30
2022-09-04T08:17:49.427Z,76.60
2022-09-04T08:20:39.112Z,74.79
2022-09-04T08:23:36.982Z,73.86
2022-09-04T08:26:14.273Z,73.64
2022-09-04T08:29:12.653Z,73.35
2022-09-04T08:31:46.870Z,72.97
2022-09-04T08:34:39.048Z,72.88
2022-09-04T08:37:25.077Z,71.72
2022-09-04T08:40:34.949Z,71.20
2022-09-04T08:43:39.792Z,70.76
2022-09-04T08:46:31.870Z,70.29
2022-09-04T08:49:10.973Z,67.09
2022-09-04T08:52:09.756Z,66.45
2022-09-04T08:55:01.929Z,65.47
2022-09-04T08:57:43.584Z,63.34
2022-09-04T09:00:14.458Z,62.12
2022-09-04T09:03:06.490Z,61.65
2022-09-04T09:05:53.651Z,61.13
2022-09-04T09:08:23.341Z,60.84
2022-09-04T09:11:08.569Z,61.11
2022-09-04T09:14:20.255Z,63.70
2022-09-04T09:16:55.761Z,62.38
2022-09-04T09:19:45.686Z,63.85
2022-09-04T09:22:49.775Z,63.97
2022-09-04T09:25:20.884Z,64.52
2022-09-04T09:28:23.473Z,63.74
2022-09-04T09:31:27.105Z,63.31
2022-09-04T09:34:16.984Z,62.69
2022-09-04T09:36:53.567Z,62.90
2022-09-04T09:39:43.924Z,62.58
2022-09-04T09:42:28.776Z,63.18
2022-09-04T09:45:13.437Z,62.16
2022-09-04T09:47:59.150Z,58.80
2022-09-04T09:50:48.497Z,59.75
2022-09-04T09:53:46.849Z,60.42
2022-09-04T09:56:42.033Z,61.13
2022-09-04T09:59:32.114Z,62.25
2022-09-04T10:02:23.730Z,61.85
2022-09-04T10:05:08.593Z,61.96
2022-09-04T10:08:35.503Z,64.08
2022-09-04T10:11:17.526Z,64.15
2022-09-04T10:13:53.529Z,62.83
2022-09-04T10:16:38.993Z,62.58
2022-09-04T10:19:43.229Z,63.43
2022-09-04T10:22:31.705Z,62.52
2022-09-04T10:25:35.565Z,60.22
2022-09-04T10:28:17.414Z,60.54
2022-09-04T10:31:35.173Z,58.84
2022-09-04T10:34:07.619Z,59.42
2022-09-04T10:36:37.115Z,58.02
2022-09-04T10:39:51.699Z,55.60
2022-09-04T10:42:43.912Z,55.81
2022-09-04T10:45:17.144Z,56.53
2022-09-04T10:48:12.653Z,55.02
2022-09-04T10:51:02.013Z,55.51
2022-09-04T10:53:54.787Z,54.41
2022-09-04T10:56:35.463Z,57.01
2022-09-04T10:59:10.397Z,55.10
2022-09-04T11:02:09.639Z,56.33
2022-09-04T11:04:44.483Z,57.84
2022-09-04T11:07:28.853Z,57.47
2022-09-04T11:10:13.798Z,56.57
2022-09-04T11:13:03.885Z,53.39
2022-09-04T11:15:56.373Z,54.28
2022-09-04T11:19:04.380Z,55.28
2022-09-04T11:21:39.999Z,55.21
2022-09-04T11:24:23.517Z,52.50
2022-09-04T11:27:26.367Z,51.13
2022-09-04T11:30:12.193Z,50.84
2022-09-04T11:33:04.241Z,49.10
2022-09-04T11:35:45.235Z,49.02
2022-09-04T11:38:43.877Z,48.33
2022-09-04T11:41:57.346Z,49.20
2022-09-04T11:45:05.816Z,49.65
2022-09-04T11:48:00.142Z,49.44
2022-09-04T11:50:27.075Z,49.40
2022-09-04T11:53:20.260Z,47.00
2022-09-04T11:56:08.675Z,45.90
2022-09-04T11:58:47.209Z,47.12
2022-09-04T12:01:27.057Z,48.48
2022-09-04T12:04:05.166Z,48.39
2022-09-04T12:06:54.115Z,48.41
2022-09-04T12:09:31.758Z,46.47
2022-09-04T12:12:08.255Z,47.44
2022-09-04T12:14:48.755Z,47.79
2022-09-04T12:17:34.812Z,46.13
2022-09-04T12:20:24.315Z,44.08
2022-09-04T12:23:19.230Z,44.59
2022-09-04T12:25:58.078Z,43.04
2022-09-04T12:28:45.810Z,43.30
2022-09-04T12:31:35.735Z,45.32
2022-09-04T12:34:28.748Z,44.32
2022-09-04T12:37:11.446Z,41.72
2022-09-04T12:39:53.328Z,45.58
2022-09-04T12:42:26.920Z,46.22
2022-09-04T12:45:02.947Z,42.02
2022-09-04T12:47:57.221Z,42.32
2022-09-04T12:50:32.750Z,45.25
2022-09-04T12:53:12.840Z,42.82
2022-09-04T12:55:50.788Z,45.48
2022-09-04T12:58:34.521Z,44.00
2022-09-04T13:01:10.781Z,42.96
2022-09-04T13:03:45.533Z,43.26
2022-09-04T13:06:40.050Z,44.68
2022-09-04T13:09:23.178Z,45.67
2022-09-04T13:11:59.217Z,42.22
2022-09-04T13:14:42.845Z,43.43
2022-09-04T13:17:27.463Z,42.97
2022-09-04T13:20:08.723Z,43.10
2022-09-04T13:22:47.267Z,42.98
2022-09-04T13:25:23.178Z,42.68
2022-09-04T13:27:57.491Z,43.66
2022-09-04T13:30:25.686Z,44.15
2022-09-04T13:33:20.078Z,43.14
2022-09-04T13:36:02.535Z,43.73
2022-09-04T13:38:46.620Z,41.83
2022-09-04T13:41:54.956Z,42.65
2022-09-04T13:44:21.723Z,40.89
2022-09-04T13:47:09.162Z,42.86
2022-09-04T13:49:55.318Z,40.61
2022-09-04T13:52:43.231Z,42.39
2022-09-04T13:55:14.365Z,39.64
2022-09-04T13:58:02.789Z,41.58
2022-09-04T14:00:32.266Z,41.84
2022-09-04T14:03:11.039Z,39.55
2022-09-04T14:05:38.146Z,40.52
2022-09-04T14:08:08.837Z,43.37
2022-09-04T14:11:19.981Z,41.33
2022-09-04T14:14:13.643Z,43.46
2022-09-04T14:16:41.866Z,42.55
2022-09-04T14:19:17.573Z,43.05
2022-09-04T14:22:05.491Z,42.16
2022-09-04T14:24:59.356Z,42.54
2022-09-04T14:27:39.560Z,43.17
2022-09-04T14:30:13.829Z,43.55
2022-09-04T14:33:07.251Z,44.79
2022-09-04T14:35:53.075Z,42.55
2022-09-04T14:38:49.486Z,42.42
2022-09-04T14:41:54.477Z,41.61
2022-09-04T14:44:39.295Z,41.54
2022-09-04T14:47:34.229Z,42.05
2022-09-04T14:50:01.533Z,41.79
2022-09-04T14:52:35.471Z,42.78
2022-09-04T14:55:06.946Z,41.80
2022-09-04T14:57:36.676Z,43.37
2022-09-04T15:00:10.956Z,43.28
2022-09-04T15:03:02.522Z,42.66
2022-09-04T15:05:51.620Z,43.55
2022-09-04T15:08:26.884Z,43.42
2022-09-04T15:10:57.373Z,44.47
2022-09-04T15:13:32.206Z,43.46
2022-09-04T15:16:20.166Z,42.46
2022-09-04T15:18:58.354Z,41.36
2022-09-04T15:21:43.906Z,41.89
2022-09-04T15:24:25.793Z,42.12
2022-09-04T15:27:17.289Z,44.82
2022-09-04T15:29:57.812Z,43.49
2022-09-04T15:32:26.928Z,43.86
2022-09-04T15:35:15.938Z,42.48
2022-09-04T15:37:48.322Z,41.27
2022-09-04T15:40:31.224Z,40.53
2022-09-04T15:43:01.698Z,42.69
2022-09-04T15:45:40.872Z,42.95
2022-09-04T15:48:35.456Z,43.71
2022-09-04T15:51:22.784Z,43.49
2022-09-04T15:54:08.234Z,43.33
2022-09-04T15:56:39.437Z,44.21
2022-09-04T15:59:20.555Z,43.74
2022-09-04T16:02:12.686Z,46.04
2022-09-04T16:05:05.723Z,43.11
2022-09-04T16:07:51.118Z,44.03
2022-09-04T16:10:30.272Z,42.73
2022-09-04T16:13:01.648Z,43.43
2022-09-04T16:15:43.250Z,42.40
2022-09-04T16:18:16.079Z,43.22
2022-09-04T16:20:51.770Z,42.11
2022-09-04T16:23:28.773Z,43.57
2022-09-04T16:25:58.276Z,44.16
2022-09-04T16:28:31.773Z,45.36
2022-09-04T16:31:06.574Z,43.90
2022-09-04T16:33:33.516Z,41.49
2022-09-04T16:36:13.933Z,42.06
2022-09-04T16:38:59.868Z,40.16
2022-09-04T16:41:37.653Z,40.86
2022-09-04T16:44:14.177Z,40.41
2022-09-04T16:47:04.751Z,40.99
2022-09-04T16:49:39.092Z,42.48
2022-09-04T16:52:21.327Z,41.92
2022-09-04T16:54:55.003Z,40.85
2022-09-04T16:57:42.539Z,41.07
2022-09-04T17:00:14.442Z,40.33
2022-09-04T17:02:51.881Z,41.64
2022-09-04T17:05:28.814Z,42.93
2022-09-04T17:08:04.929Z,45.28
2022-09-04T17:10:36.513Z,46.15
2022-09-04T17:13:12.248Z,47.01
2022-09-04T17:15:53.194Z,47.83
2022-09-04T17:18:22.666Z,47.48
2022-09-04T17:22:24.969Z,48.53
2022-09-04T17:28:58.087Z,50.00
2022-09-04T17:29:08.974Z,51.04
2022-09-04T17:29:47.727Z,51.93
2022-09-04T17:36:39.029Z,53.18
2022-09-04T17:40:38.375Z,54.16
2022-09-04T17:40:57.153Z,54.38
2022-09-04T17:41:36.383Z,54.77
2022-09-04T17:44:22.402Z,54.95
2022-09-04T17:47:07.072Z,55.46
2022-09-04T17:49:35.118Z,55.66
2022-09-04T17:52:09.007Z,56.11
2022-09-04T17:54:48.863Z,56.89
2022-09-04T17:57:28.953Z,57.63
2022-09-04T18:00:06.695Z,58.42
2022-09-04T18:02:56.308Z,57.87
2022-09-04T18:05:31.559Z,57.97
2022-09-04T18:08:13.774Z,59.06
2022-09-04T18:10:49.670Z,59.93
2022-09-04T18:13:36.756Z,60.05
2022-09-04T18:16:16.286Z,59.40
2022-09-04T18:18:47.165Z,59.98
2022-09-04T18:21:26.920Z,60.72
2022-09-04T18:24:07.497Z,60.92
2022-09-04T18:26:41.696Z,60.64
2022-09-04T18:30:35.309Z,61.08
2022-09-04T18:37:25.130Z,61.10
2022-09-04T18:37:25.847Z,60.73
2022-09-04T18:37:59.830Z,61.30
2022-09-04T18:44:58.523Z,61.19
2022-09-04T18:50:24.469Z,62.04
2022-09-04T18:50:30.442Z,62.55
2022-09-04T18:50:45.240Z,62.07
2022-09-04T18:52:00.532Z,61.85
2022-09-04T18:54:39.690Z,62.38
2022-09-04T18:57:20.568Z,63.90
2022-09-04T18:59:54.930Z,64.13
2022-09-04T19:02:43.872Z,64.37
2022-09-04T19:05:20.343Z,64.81
2022-09-04T19:08:05.362Z,64.27
2022-09-04T19:10:45.343Z,64.22
2022-09-04T19:13:19.517Z,64.13
2022-09-04T19:16:10.648Z,64.30
2022-09-04T19:19:00.826Z,64.70
2022-09-04T19:21:40.848Z,65.08
2022-09-04T19:24:32.087Z,65.59
2022-09-04T19:27:27.210Z,65.78
2022-09-04T19:30:18.750Z,66.37
2022-09-04T19:32:59.754Z,66.68
2022-09-04T19:35:50.091Z,67.07
2022-09-04T19:45:34.831Z,67.55
2022-09-04T19:46:04.421Z,68.72
2022-09-04T19:46:14.313Z,68.23
2022-09-04T19:47:40.405Z,68.37
2022-09-04T19:53:32.832Z,68.63
2022-09-04T19:53:38.928Z,68.65
2022-09-04T19:56:30.734Z,68.94
2022-09-04T19:59:26.864Z,69.33
2022-09-04T20:02:02.824Z,69.53
2022-09-04T20:04:41.207Z,70.63
2022-09-04T20:07:32.448Z,70.87
2022-09-04T20:10:04.684Z,70.82
2022-09-04T20:12:44.119Z,70.54
2022-09-04T20:15:22.436Z,70.62
2022-09-04T20:18:19.782Z,71.39
2022-09-04T20:20:58.197Z,71.96
2022-09-04T20:23:52.348Z,72.87
2022-09-04T20:26:30.782Z,72.76
2022-09-04T20:29:20.800Z,72.80
2022-09-04T20:31:52.940Z,72.38
2022-09-04T20:34:39.006Z,72.51
2022-09-04T20:37:23.638Z,72.92
2022-09-04T20:39:59.486Z,72.90
2022-09-04T20:42:35.894Z,72.58
2022-09-04T20:48:55.129Z,71.09
2022-09-04T20:52:42.762Z,71.11
2022-09-04T20:53:06.041Z,71.51
2022-09-04T20:54:06.022Z,72.15
2022-09-04T21:00:39.273Z,72.52
2022-09-04T21:03:14.259Z,73.56
2022-09-04T21:03:23.114Z,74.21
2022-09-04T21:05:32.863Z,73.55
2022-09-04T21:08:06.575Z,73.38
2022-09-04T21:10:41.017Z,73.74
2022-09-04T21:13:23.181Z,73.42
2022-09-04T21:15:59.282Z,73.14
2022-09-04T21:19:27.893Z,73.07
2022-09-04T21:22:32.645Z,73.48
2022-09-04T21:25:27.901Z,73.61
2022-09-04T21:28:32.049Z,73.90
2022-09-04T21:31:17.374Z,74.97
2022-09-04T21:33:45.642Z,74.83
2022-09-04T21:36:38.217Z,74.76
2022-09-04T21:39:41.453Z,75.06
2022-09-04T21:42:20.805Z,75.07
2022-09-04T21:45:19.041Z,75.60
2022-09-04T21:48:02.016Z,75.84
2022-09-04T21:50:46.839Z,75.14
2022-09-04T21:53:41.138Z,75.50
2022-09-04T22:00:48.950Z,75.90
2022-09-04T22:02:45.024Z,76.24
2022-09-04T22:03:09.619Z,76.90
2022-09-04T22:05:56.636Z,76.31
2022-09-04T22:13:30.678Z,76.13
2022-09-04T22:13:46.008Z,76.08
2022-09-04T22:14:37.424Z,76.13
2022-09-04T22:17:24.913Z,76.61
2022-09-04T22:20:08.645Z,77.42
2022-09-04T22:22:56.809Z,77.27
2022-09-04T22:25:47.985Z,77.12
2022-09-04T22:29:00.099Z,77.14
2022-09-04T22:31:29.688Z,76.67
2022-09-04T22:34:15.007Z,77.04
2022-09-04T22:37:12.144Z,76.94
2022-09-04T22:40:13.010Z,77.27
2022-09-04T22:43:01.805Z,77.32
2022-09-04T22:45:41.404Z,77.35
2022-09-04T22:48:32.733Z,77.25
2022-09-04T22:51:06.083Z,77.51
2022-09-04T22:54:17.799Z,77.73
2022-09-04T22:56:57.389Z,78.25
2022-09-04T23:00:01.729Z,78.46
2022-09-04T23:06:14.039Z,78.11
2022-09-04T23:13:42.784Z,78.43
2022-09-04T23:14:02.318Z,78.59
2022-09-04T23:15:17.235Z,78.86
2022-09-04T23:19:50.159Z,78.86
2022-09-04T23:26:32.847Z,79.47
2022-09-04T23:26:41.908Z,79.49
2022-09-04T23:27:27.971Z,79.57
2022-09-04T23:30:04.958Z,79.51
2022-09-04T23:32:35.412Z,79.71
2022-09-04T23:35:27.590Z,79.98
2022-09-04T23:38:24.128Z,80.26
2022-09-04T23:40:53.670Z,80.30
2022-09-04T23:43:30.901Z,80.43
2022-09-04T23:46:13.380Z,80.88
2022-09-04T23:49:18.258Z,80.61
2022-09-04T23:52:05.118Z,80.41
2022-09-04T23:54:56.896Z,80.58
2022-09-04T23:57:55.812Z,80.40
